Vizconde de Eza — EAXB — position and weather

sailwx.info

Track history (hours):
 
Tides and Currents Weather Stations Pressure Air Temp Water Temp Dewpoint Dewpoint Depression Visibility Wind Speed Wind Dir Waves Ship Positions

Oceanographic research ship Vizconde de Eza (Spain)

Detailed information on ship capabilities available from University of Delaware's Ocean Information Center.

Last reported at 2015-Jul-27 19:20 UTC. Time now 2015-Aug-03 15:07 UTC.
Position N 47°35' W 052°27'.

Length 53 m; draft 6.2 m.

Type: Other ship. MMSI: 224582000.

Date/timePositionNaut miles runAvg speedWind from/ knotsBaromVisibWave heightAir tempDewpointWater temp
2015-Jul-27 19:20N 47°35' W 052°27'10 3.4
2015-Jul-27 16:22N 47°34' W 052°42'0 0.0
2015-Jul-27 15:28N 47°34' W 052°42'0 0.0
2015-Jul-27 14:28N 47°34' W 052°42'0 0.0
2015-Jul-27 13:28N 47°34' W 052°42'0 0.0
2015-Jul-27 12:28N 47°34' W 052°42'0 0.0
2015-Jul-27 11:28N 47°34' W 052°42'0 0.0
2015-Jul-27 09:04N 47°34' W 052°42'0 0.0
2015-Jul-27 08:28N 47°34' W 052°42'0 0.0
2015-Jul-27 04:22N 47°34' W 052°42'0 0.0
2015-Jul-27 03:28N 47°34' W 052°42'0 0.0
2015-Jul-27 02:22N 47°34' W 052°42'0 0.0
2015-Jul-26 11:04N 47°34' W 052°42'0 0.0
2015-Jul-26 10:10N 47°34' W 052°42'0 0.0
2015-Jul-26 09:28N 47°34' W 052°42'0 0.0
2015-Jul-26 08:16N 47°34' W 052°42'0 0.0
2015-Jul-26 07:28N 47°34' W 052°42'0 0.0
2015-Jul-26 06:28N 47°34' W 052°42'0 0.0
2015-Jul-26 05:28N 47°34' W 052°42'0 0.0
2015-Jul-26 04:22N 47°34' W 052°42'0 0.0
2015-Jul-26 03:25N 47°34' W 052°42'0 0.0
2015-Jul-25 12:22N 47°34' W 052°42'0 0.0
2015-Jul-25 09:22N 47°34' W 052°42'0 0.0
2015-Jul-25 08:34N 47°34' W 052°42'0 0.0
2015-Jul-25 04:10N 47°34' W 052°42'0 0.0
2015-Jul-25 02:34N 47°34' W 052°42'0 0.0
2015-Jul-25 01:34N 47°34' W 052°42'0 0.0
2015-Jul-25 00:34N 47°34' W 052°42'0 0.0
2015-Jul-24 23:34N 47°34' W 052°42'0 0.0
2015-Jul-24 18:34N 47°34' W 052°42'0 0.0
2015-Jul-24 17:21N 47°34' W 052°42'0 0.0
2015-Jul-24 16:33N 47°34' W 052°42'0 0.0
2015-Jul-24 15:21N 47°34' W 052°42'0 0.0
2015-Jul-24 14:27N 47°34' W 052°42'0 0.0
2015-Jul-24 13:27N 47°34' W 052°42'0 0.0
2015-Jul-24 11:24N 47°34' W 052°42'0 0.0
2015-Jul-24 10:33N 47°34' W 052°42'0 0.0
2015-Jul-24 09:27N 47°34' W 052°42'0 0.0
2015-Jul-24 08:09N 47°34' W 052°42'0 0.0
2015-Jul-24 07:33N 47°34' W 052°42'0 0.0
2015-Jul-24 06:30N 47°34' W 052°42'0 0.0
2015-Jul-24 04:33N 47°34' W 052°42'0 0.0
2015-Jul-24 03:27N 47°34' W 052°42'0 0.0
2015-Jul-24 02:27N 47°34' W 052°42'0 0.0
2015-Jul-24 01:24N 47°34' W 052°42'0 0.0
2015-Jul-24 00:30N 47°34' W 052°42'0 0.0
2015-Jul-23 23:33N 47°34' W 052°42'0 0.0
2015-Jul-23 22:27N 47°34' W 052°42'0 0.0
2015-Jul-23 21:33N 47°34' W 052°42'0 0.0
2015-Jul-23 20:09N 47°34' W 052°42'0 0.0
2015-Jul-23 15:27N 47°34' W 052°42'0 0.0
2015-Jul-23 14:27N 47°34' W 052°42'0 0.0
2015-Jul-23 13:18N 47°34' W 052°42'0 0.0
2015-Jul-23 12:24N 47°34' W 052°42'1 0.9
2015-Jul-23 11:31N 47°34' W 052°41'5 4.6
2015-Jul-23 10:29N 47°33' W 052°34'8 8.9
2015-Jul-23 09:32N 47°31' W 052°22'9 8.6
2015-Jul-23 08:31N 47°29' W 052°09'  
Track history (hours):
 
Tides and Currents Weather Stations Pressure Air Temp Water Temp Dewpoint Dewpoint Depression Visibility Wind Speed Wind Dir Waves Ship Positions

Oceanographic research ship Vizconde de Eza (Spain)

Detailed information on ship capabilities available from University of Delaware's Ocean Information Center.

Last reported at 2015-Jul-27 19:20 UTC. Time now 2015-Aug-03 15:07 UTC.
Position N 47°35' W 052°27'.

Length 53 m; draft 6.2 m.

Type: Other ship. MMSI: 224582000.

Date/timePositionNaut miles runAvg speedWind from/ knotsBaromVisibWave heightAir tempDewpointWater temp
2015-Jul-27 19:20N 47°35' W 052°27'10 3.4
2015-Jul-27 16:22N 47°34' W 052°42'0 0.0
2015-Jul-27 15:28N 47°34' W 052°42'0 0.0
2015-Jul-27 14:28N 47°34' W 052°42'0 0.0
2015-Jul-27 13:28N 47°34' W 052°42'0 0.0
2015-Jul-27 12:28N 47°34' W 052°42'0 0.0
2015-Jul-27 11:28N 47°34' W 052°42'0 0.0
2015-Jul-27 09:04N 47°34' W 052°42'0 0.0
2015-Jul-27 08:28N 47°34' W 052°42'0 0.0
2015-Jul-27 04:22N 47°34' W 052°42'0 0.0
2015-Jul-27 03:28N 47°34' W 052°42'0 0.0
2015-Jul-27 02:22N 47°34' W 052°42'0 0.0
2015-Jul-26 11:04N 47°34' W 052°42'0 0.0
2015-Jul-26 10:10N 47°34' W 052°42'0 0.0
2015-Jul-26 09:28N 47°34' W 052°42'0 0.0
2015-Jul-26 08:16N 47°34' W 052°42'0 0.0
2015-Jul-26 07:28N 47°34' W 052°42'0 0.0
2015-Jul-26 06:28N 47°34' W 052°42'0 0.0
2015-Jul-26 05:28N 47°34' W 052°42'0 0.0
2015-Jul-26 04:22N 47°34' W 052°42'0 0.0
2015-Jul-26 03:25N 47°34' W 052°42'0 0.0
2015-Jul-25 12:22N 47°34' W 052°42'0 0.0
2015-Jul-25 09:22N 47°34' W 052°42'0 0.0
2015-Jul-25 08:34N 47°34' W 052°42'0 0.0
2015-Jul-25 04:10N 47°34' W 052°42'0 0.0
2015-Jul-25 02:34N 47°34' W 052°42'0 0.0
2015-Jul-25 01:34N 47°34' W 052°42'0 0.0
2015-Jul-25 00:34N 47°34' W 052°42'0 0.0
2015-Jul-24 23:34N 47°34' W 052°42'0 0.0
2015-Jul-24 18:34N 47°34' W 052°42'0 0.0
2015-Jul-24 17:21N 47°34' W 052°42'0 0.0
2015-Jul-24 16:33N 47°34' W 052°42'0 0.0
2015-Jul-24 15:21N 47°34' W 052°42'0 0.0
2015-Jul-24 14:27N 47°34' W 052°42'0 0.0
2015-Jul-24 13:27N 47°34' W 052°42'0 0.0
2015-Jul-24 11:24N 47°34' W 052°42'0 0.0
2015-Jul-24 10:33N 47°34' W 052°42'0 0.0
2015-Jul-24 09:27N 47°34' W 052°42'0 0.0
2015-Jul-24 08:09N 47°34' W 052°42'0 0.0
2015-Jul-24 07:33N 47°34' W 052°42'0 0.0
2015-Jul-24 06:30N 47°34' W 052°42'0 0.0
2015-Jul-24 04:33N 47°34' W 052°42'0 0.0
2015-Jul-24 03:27N 47°34' W 052°42'0 0.0
2015-Jul-24 02:27N 47°34' W 052°42'0 0.0
2015-Jul-24 01:24N 47°34' W 052°42'0 0.0
2015-Jul-24 00:30N 47°34' W 052°42'0 0.0
2015-Jul-23 23:33N 47°34' W 052°42'0 0.0
2015-Jul-23 22:27N 47°34' W 052°42'0 0.0
2015-Jul-23 21:33N 47°34' W 052°42'0 0.0
2015-Jul-23 20:09N 47°34' W 052°42'0 0.0
2015-Jul-23 15:27N 47°34' W 052°42'0 0.0
2015-Jul-23 14:27N 47°34' W 052°42'0 0.0
2015-Jul-23 13:18N 47°34' W 052°42'0 0.0
2015-Jul-23 12:24N 47°34' W 052°42'1 0.9
2015-Jul-23 11:31N 47°34' W 052°41'5 4.6
2015-Jul-23 10:29N 47°33' W 052°34'8 8.9
2015-Jul-23 09:32N 47°31' W 052°22'9 8.6
2015-Jul-23 08:31N 47°29' W 052°09'  

Dump ship's entire track history